sensor_id;sensor_type;location;lat;lon;timestamp;pressure;altitude;pressure_sealevel;temperature;humidity
27202;BME280;14717;46.924;15.474;2022-10-16T00:01:20;98149.88;;;11.83;100.00
27202;BME280;14717;46.924;15.474;2022-10-16T00:03:47;98154.94;;;11.76;100.00
27202;BME280;14717;46.924;15.474;2022-10-16T00:06:14;98157.25;;;11.69;100.00
27202;BME280;14717;46.924;15.474;2022-10-16T00:08:40;98159.53;;;11.62;100.00
27202;BME280;14717;46.924;15.474;2022-10-16T00:11:15;98159.25;;;11.63;100.00
27202;BME280;14717;46.924;15.474;2022-10-16T00:13:42;98156.47;;;11.63;100.00
27202;BME280;14717;46.924;15.474;2022-10-16T00:16:09;98155.63;;;11.63;100.00
27202;BME280;14717;46.924;15.474;2022-10-16T00:18:35;98157.53;;;11.67;100.00
27202;BME280;14717;46.924;15.474;2022-10-16T00:21:07;98154.72;;;11.72;100.00
27202;BME280;14717;46.924;15.474;2022-10-16T00:23:33;98150.22;;;11.76;100.00
27202;BME280;14717;46.924;15.474;2022-10-16T00:26:01;98157.41;;;11.77;100.00
27202;BME280;14717;46.924;15.474;2022-10-16T00:28:27;98153.53;;;11.78;100.00
27202;BME280;14717;46.924;15.474;2022-10-16T00:30:53;98156.84;;;11.80;100.00
27202;BME280;14717;46.924;15.474;2022-10-16T00:33:19;98146.75;;;11.89;100.00
27202;BME280;14717;46.924;15.474;2022-10-16T00:35:44;98153.66;;;11.91;100.00
27202;BME280;14717;46.924;15.474;2022-10-16T00:38:10;98156.66;;;11.95;100.00
27202;BME280;14717;46.924;15.474;2022-10-16T00:40:35;98158.25;;;12.01;100.00
27202;BME280;14717;46.924;15.474;2022-10-16T00:43:00;98158.25;;;12.01;100.00
27202;BME280;14717;46.924;15.474;2022-10-16T00:45:26;98157.88;;;11.84;100.00
27202;BME280;14717;46.924;15.474;2022-10-16T00:47:54;98161.28;;;11.76;100.00
27202;BME280;14717;46.924;15.474;2022-10-16T00:50:30;98163.88;;;11.68;100.00
27202;BME280;14717;46.924;15.474;2022-10-16T00:52:57;98163.00;;;11.72;100.00
27202;BME280;14717;46.924;15.474;2022-10-16T00:55:24;98165.09;;;11.85;100.00
27202;BME280;14717;46.924;15.474;2022-10-16T00:57:51;98168.09;;;11.89;100.00
27202;BME280;14717;46.924;15.474;2022-10-16T01:00:23;98166.81;;;11.76;100.00
27202;BME280;14717;46.924;15.474;2022-10-16T01:02:57;98166.94;;;11.66;100.00
27202;BME280;14717;46.924;15.474;2022-10-16T01:05:37;98169.50;;;11.58;100.00
27202;BME280;14717;46.924;15.474;2022-10-16T01:08:13;98173.66;;;11.60;100.00
27202;BME280;14717;46.924;15.474;2022-10-16T01:10:51;98181.72;;;11.57;100.00
27202;BME280;14717;46.924;15.474;2022-10-16T01:13:31;98175.38;;;11.51;100.00
27202;BME280;14717;46.924;15.474;2022-10-16T01:16:34;98174.22;;;11.57;100.00
27202;BME280;14717;46.924;15.474;2022-10-16T01:19:18;98172.56;;;11.56;100.00
27202;BME280;14717;46.924;15.474;2022-10-16T01:21:51;98183.63;;;11.56;100.00
27202;BME280;14717;46.924;15.474;2022-10-16T01:24:31;98169.50;;;11.58;100.00
27202;BME280;14717;46.924;15.474;2022-10-16T01:27:18;98172.00;;;11.59;100.00
27202;BME280;14717;46.924;15.474;2022-10-16T01:32:51;98170.38;;;11.82;100.00
27202;BME280;14717;46.924;15.474;2022-10-16T01:37:47;98174.78;;;11.83;100.00
27202;BME280;14717;46.924;15.474;2022-10-16T01:40:16;98176.09;;;11.90;100.00
27202;BME280;14717;46.924;15.474;2022-10-16T01:42:51;98171.91;;;11.92;100.00
27202;BME280;14717;46.924;15.474;2022-10-16T01:45:18;98164.69;;;11.96;100.00
27202;BME280;14717;46.924;15.474;2022-10-16T01:47:45;98172.25;;;11.86;100.00
27202;BME280;14717;46.924;15.474;2022-10-16T01:50:13;98181.56;;;11.72;100.00
27202;BME280;14717;46.924;15.474;2022-10-16T01:52:43;98183.53;;;11.66;100.00
27202;BME280;14717;46.924;15.474;2022-10-16T01:55:12;98194.03;;;11.69;100.00
27202;BME280;14717;46.924;15.474;2022-10-16T01:57:41;98187.81;;;11.82;100.00
27202;BME280;14717;46.924;15.474;2022-10-16T02:00:12;98175.03;;;11.86;100.00
27202;BME280;14717;46.924;15.474;2022-10-16T02:02:41;98180.28;;;11.88;100.00
27202;BME280;14717;46.924;15.474;2022-10-16T02:05:59;98178.81;;;11.95;100.00
27202;BME280;14717;46.924;15.474;2022-10-16T02:08:18;98177.03;;;12.04;100.00
27202;BME280;14717;46.924;15.474;2022-10-16T02:10:44;98168.16;;;12.07;100.00
27202;BME280;14717;46.924;15.474;2022-10-16T02:13:14;98171.69;;;12.12;100.00
27202;BME280;14717;46.924;15.474;2022-10-16T02:15:41;98165.56;;;12.15;100.00
27202;BME280;14717;46.924;15.474;2022-10-16T02:18:07;98171.97;;;12.11;100.00
27202;BME280;14717;46.924;15.474;2022-10-16T02:20:43;98173.22;;;12.00;100.00
27202;BME280;14717;46.924;15.474;2022-10-16T02:23:13;98166.03;;;11.99;100.00
27202;BME280;14717;46.924;15.474;2022-10-16T02:25:44;98163.50;;;12.02;100.00
27202;BME280;14717;46.924;15.474;2022-10-16T02:28:18;98171.44;;;12.09;100.00
27202;BME280;14717;46.924;15.474;2022-10-16T02:30:45;98177.03;;;12.04;100.00
27202;BME280;14717;46.924;15.474;2022-10-16T02:33:14;98171.69;;;12.12;100.00
27202;BME280;14717;46.924;15.474;2022-10-16T02:35:42;98174.63;;;12.21;100.00
27202;BME280;14717;46.924;15.474;2022-10-16T02:38:09;98172.94;;;12.25;100.00
27202;BME280;14717;46.924;15.474;2022-10-16T02:40:35;98173.97;;;12.29;100.00
27202;BME280;14717;46.924;15.474;2022-10-16T02:43:03;98172.84;;;12.30;100.00
27202;BME280;14717;46.924;15.474;2022-10-16T02:45:29;98167.09;;;12.26;100.00
27202;BME280;14717;46.924;15.474;2022-10-16T02:47:54;98176.16;;;12.32;100.00
27202;BME280;14717;46.924;15.474;2022-10-16T02:50:19;98175.91;;;12.28;100.00
27202;BME280;14717;46.924;15.474;2022-10-16T02:52:45;98179.69;;;12.14;100.00
27202;BME280;14717;46.924;15.474;2022-10-16T02:55:10;98189.25;;;12.03;100.00
27202;BME280;14717;46.924;15.474;2022-10-16T02:57:36;98179.53;;;12.05;100.00
27202;BME280;14717;46.924;15.474;2022-10-16T03:00:03;98188.34;;;12.07;100.00
27202;BME280;14717;46.924;15.474;2022-10-16T03:02:28;98185.13;;;12.00;100.00
27202;BME280;14717;46.924;15.474;2022-10-16T03:04:54;98187.53;;;11.84;100.00
27202;BME280;14717;46.924;15.474;2022-10-16T03:07:19;98181.00;;;11.70;100.00
27202;BME280;14717;46.924;15.474;2022-10-16T03:09:44;98193.56;;;11.62;100.00
27202;BME280;14717;46.924;15.474;2022-10-16T03:12:10;98195.84;;;11.55;100.00
27202;BME280;14717;46.924;15.474;2022-10-16T03:14:37;98196.69;;;11.51;100.00
27202;BME280;14717;46.924;15.474;2022-10-16T03:17:02;98195.88;;;11.50;100.00
27202;BME280;14717;46.924;15.474;2022-10-16T03:19:27;98181.19;;;11.50;100.00
27202;BME280;14717;46.924;15.474;2022-10-16T03:21:53;98200.84;;;11.53;100.00
27202;BME280;14717;46.924;15.474;2022-10-16T03:24:18;98198.28;;;11.62;100.00
27202;BME280;14717;46.924;15.474;2022-10-16T03:26:43;98197.41;;;11.61;100.00
27202;BME280;14717;46.924;15.474;2022-10-16T03:29:09;98200.06;;;11.43;100.00
27202;BME280;14717;46.924;15.474;2022-10-16T03:31:34;98197.34;;;11.38;100.00
27202;BME280;14717;46.924;15.474;2022-10-16T03:34:00;98209.25;;;11.34;100.00
27202;BME280;14717;46.924;15.474;2022-10-16T03:36:25;98198.19;;;11.39;100.00
27202;BME280;14717;46.924;15.474;2022-10-16T03:38:51;98198.69;;;11.46;100.00
27202;BME280;14717;46.924;15.474;2022-10-16T03:41:16;98193.06;;;11.55;100.00
27202;BME280;14717;46.924;15.474;2022-10-16T03:43:41;98188.13;;;11.52;100.00
27202;BME280;14717;46.924;15.474;2022-10-16T03:46:07;98199.25;;;11.43;100.00
27202;BME280;14717;46.924;15.474;2022-10-16T03:48:32;98202.06;;;11.38;100.00
27202;BME280;14717;46.924;15.474;2022-10-16T03:50:58;98197.56;;;11.42;100.00
27202;BME280;14717;46.924;15.474;2022-10-16T03:53:24;98200.91;;;11.44;100.00
27202;BME280;14717;46.924;15.474;2022-10-16T03:55:49;98203.09;;;11.42;100.00
27202;BME280;14717;46.924;15.474;2022-10-16T03:58:15;98203.53;;;11.25;100.00
27202;BME280;14717;46.924;15.474;2022-10-16T04:00:44;98207.84;;;11.03;100.00
27202;BME280;14717;46.924;15.474;2022-10-16T04:03:10;98219.47;;;11.00;100.00
27202;BME280;14717;46.924;15.474;2022-10-16T04:05:36;98227.22;;;11.03;100.00
27202;BME280;14717;46.924;15.474;2022-10-16T04:08:01;98226.38;;;11.07;100.00
27202;BME280;14717;46.924;15.474;2022-10-16T04:10:27;98229.72;;;11.00;100.00
27202;BME280;14717;46.924;15.474;2022-10-16T04:12:52;98236.44;;;10.84;100.00
27202;BME280;14717;46.924;15.474;2022-10-16T04:15:23;98232.06;;;10.73;100.00
27202;BME280;14717;46.924;15.474;2022-10-16T04:17:49;98232.91;;;10.78;100.00
27202;BME280;14717;46.924;15.474;2022-10-16T04:20:14;98230.56;;;10.95;100.00
27202;BME280;14717;46.924;15.474;2022-10-16T04:22:40;98239.09;;;11.03;100.00
27202;BME280;14717;46.924;15.474;2022-10-16T04:25:05;98225.50;;;11.07;100.00
27202;BME280;14717;46.924;15.474;2022-10-16T04:27:31;98232.09;;;11.16;100.00
27202;BME280;14717;46.924;15.474;2022-10-16T04:29:57;98224.84;;;11.25;100.00
27202;BME280;14717;46.924;15.474;2022-10-16T04:32:23;98235.81;;;11.35;100.00
27202;BME280;14717;46.924;15.474;2022-10-16T04:34:48;98235.81;;;11.35;100.00
27202;BME280;14717;46.924;15.474;2022-10-16T04:37:14;98233.66;;;11.27;100.00
27202;BME280;14717;46.924;15.474;2022-10-16T04:39:39;98226.69;;;11.34;100.00
27202;BME280;14717;46.924;15.474;2022-10-16T04:42:05;98235.25;;;11.38;100.00
27202;BME280;14717;46.924;15.474;2022-10-16T04:44:30;98248.50;;;11.46;100.00
27202;BME280;14717;46.924;15.474;2022-10-16T04:46:55;98249.31;;;11.46;100.00
27202;BME280;14717;46.924;15.474;2022-10-16T04:49:21;98248.47;;;11.50;100.00
27202;BME280;14717;46.924;15.474;2022-10-16T04:51:46;98247.31;;;11.51;100.00
27202;BME280;14717;46.924;15.474;2022-10-16T04:54:12;98244.84;;;11.50;100.00
27202;BME280;14717;46.924;15.474;2022-10-16T04:56:37;98246.81;;;11.45;100.00
27202;BME280;14717;46.924;15.474;2022-10-16T04:59:07;98252.91;;;11.47;100.00
27202;BME280;14717;46.924;15.474;2022-10-16T05:01:33;98250.38;;;11.50;100.00
27202;BME280;14717;46.924;15.474;2022-10-16T05:03:58;98250.09;;;11.51;100.00
27202;BME280;14717;46.924;15.474;2022-10-16T05:06:23;98246.22;;;11.52;100.00
27202;BME280;14717;46.924;15.474;2022-10-16T05:08:49;98252.28;;;11.54;100.00
27202;BME280;14717;46.924;15.474;2022-10-16T05:11:14;98263.88;;;11.56;100.00
27202;BME280;14717;46.924;15.474;2022-10-16T05:13:39;98260.06;;;11.52;100.00
27202;BME280;14717;46.924;15.474;2022-10-16T05:16:05;98258.47;;;11.37;100.00
27202;BME280;14717;46.924;15.474;2022-10-16T05:18:30;98271.81;;;11.30;100.00
27202;BME280;14717;46.924;15.474;2022-10-16T05:20:56;98273.97;;;11.38;100.00
27202;BME280;14717;46.924;15.474;2022-10-16T05:23:22;98281.41;;;11.42;100.00
27202;BME280;14717;46.924;15.474;2022-10-16T05:25:57;98283.91;;;11.48;100.00
27202;BME280;14717;46.924;15.474;2022-10-16T05:28:24;98281.94;;;11.49;100.00
27202;BME280;14717;46.924;15.474;2022-10-16T05:30:50;98289.13;;;11.50;100.00
27202;BME280;14717;46.924;15.474;2022-10-16T05:33:16;98284.22;;;11.37;100.00
27202;BME280;14717;46.924;15.474;2022-10-16T05:35:41;98281.22;;;11.29;100.00
27202;BME280;14717;46.924;15.474;2022-10-16T05:38:07;98293.69;;;11.26;100.00
27202;BME280;14717;46.924;15.474;2022-10-16T05:40:32;98293.94;;;11.30;100.00
27202;BME280;14717;46.924;15.474;2022-10-16T05:42:58;98293.34;;;11.38;100.00
27202;BME280;14717;46.924;15.474;2022-10-16T05:45:24;98291.63;;;11.42;100.00
27202;BME280;14717;46.924;15.474;2022-10-16T05:47:49;98297.44;;;11.40;100.00
27202;BME280;14717;46.924;15.474;2022-10-16T05:50:14;98291.38;;;11.38;100.00
27202;BME280;14717;46.924;15.474;2022-10-16T05:52:40;98297.16;;;11.42;100.00
27202;BME280;14717;46.924;15.474;2022-10-16T05:55:05;98296.06;;;11.43;100.00
27202;BME280;14717;46.924;15.474;2022-10-16T05:57:31;98305.47;;;11.47;100.00
27202;BME280;14717;46.924;15.474;2022-10-16T05:59:56;98311.34;;;11.30;100.00
27202;BME280;14717;46.924;15.474;2022-10-16T06:02:22;98308.69;;;11.15;100.00
27202;BME280;14717;46.924;15.474;2022-10-16T06:04:47;98312.38;;;11.01;100.00
27202;BME280;14717;46.924;15.474;2022-10-16T06:07:12;98306.25;;;11.04;100.00
27202;BME280;14717;46.924;15.474;2022-10-16T06:09:38;98314.53;;;11.09;100.00
27202;BME280;14717;46.924;15.474;2022-10-16T06:12:03;98309.56;;;11.11;100.00
27202;BME280;14717;46.924;15.474;2022-10-16T06:14:29;98312.31;;;11.11;100.00
27202;BME280;14717;46.924;15.474;2022-10-16T06:16:54;98312.81;;;11.18;100.00
27202;BME280;14717;46.924;15.474;2022-10-16T06:19:19;98315.47;;;11.38;100.00
27202;BME280;14717;46.924;15.474;2022-10-16T06:21:45;98323.41;;;11.54;100.00
27202;BME280;14717;46.924;15.474;2022-10-16T06:24:10;98332.56;;;11.49;100.00
27202;BME280;14717;46.924;15.474;2022-10-16T06:26:37;98345.34;;;11.41;100.00
27202;BME280;14717;46.924;15.474;2022-10-16T06:29:02;98345.00;;;11.52;100.00
27202;BME280;14717;46.924;15.474;2022-10-16T06:31:28;98344.44;;;11.45;100.00
27202;BME280;14717;46.924;15.474;2022-10-16T06:33:56;98350.91;;;11.36;100.00
27202;BME280;14717;46.924;15.474;2022-10-16T06:36:23;98366.38;;;11.32;100.00
27202;BME280;14717;46.924;15.474;2022-10-16T06:38:48;98363.03;;;11.40;100.00
27202;BME280;14717;46.924;15.474;2022-10-16T06:41:17;98363.56;;;11.42;100.00
27202;BME280;14717;46.924;15.474;2022-10-16T06:43:42;98374.13;;;11.35;100.00
27202;BME280;14717;46.924;15.474;2022-10-16T06:46:11;98374.69;;;11.32;100.00
27202;BME280;14717;46.924;15.474;2022-10-16T06:48:37;98375.78;;;11.36;100.00
27202;BME280;14717;46.924;15.474;2022-10-16T06:51:10;98374.06;;;11.45;100.00
27202;BME280;14717;46.924;15.474;2022-10-16T06:53:39;98381.00;;;11.42;100.00
27202;BME280;14717;46.924;15.474;2022-10-16T06:56:27;98379.09;;;11.38;100.00
27202;BME280;14717;46.924;15.474;2022-10-16T06:58:53;98387.94;;;11.40;100.00
27202;BME280;14717;46.924;15.474;2022-10-16T07:01:21;98379.06;;;11.48;100.00
27202;BME280;14717;46.924;15.474;2022-10-16T07:03:48;98385.41;;;11.48;100.00
27202;BME280;14717;46.924;15.474;2022-10-16T07:06:16;98389.50;;;11.60;100.00
27202;BME280;14717;46.924;15.474;2022-10-16T07:08:44;98385.78;;;11.75;100.00
27202;BME280;14717;46.924;15.474;2022-10-16T07:11:12;98383.06;;;11.70;100.00
27202;BME280;14717;46.924;15.474;2022-10-16T07:13:40;98387.03;;;11.59;100.00
27202;BME280;14717;46.924;15.474;2022-10-16T07:16:14;98394.91;;;11.80;100.00
27202;BME280;14717;46.924;15.474;2022-10-16T07:18:41;98379.59;;;11.88;100.00
27202;BME280;14717;46.924;15.474;2022-10-16T07:21:19;98381.38;;;11.74;100.00
27202;BME280;14717;46.924;15.474;2022-10-16T07:23:45;98384.94;;;11.79;100.00
27202;BME280;14717;46.924;15.474;2022-10-16T07:26:11;98391.25;;;11.85;100.00
27202;BME280;14717;46.924;15.474;2022-10-16T07:28:37;98384.13;;;12.12;100.00
27202;BME280;14717;46.924;15.474;2022-10-16T07:31:07;98389.44;;;12.36;100.00
27202;BME280;14717;46.924;15.474;2022-10-16T07:33:34;98399.03;;;12.49;100.00
27202;BME280;14717;46.924;15.474;2022-10-16T07:36:00;98398.59;;;12.65;100.00
27202;BME280;14717;46.924;15.474;2022-10-16T07:38:26;98403.41;;;12.78;100.00
27202;BME280;14717;46.924;15.474;2022-10-16T07:41:03;98403.50;;;12.96;100.00
27202;BME280;14717;46.924;15.474;2022-10-16T07:43:29;98400.38;;;13.03;100.00
27202;BME280;14717;46.924;15.474;2022-10-16T07:45:55;98400.88;;;13.10;100.00
27202;BME280;14717;46.924;15.474;2022-10-16T07:48:21;98407.03;;;13.07;100.00
27202;BME280;14717;46.924;15.474;2022-10-16T07:50:47;98398.28;;;13.18;100.00
27202;BME280;14717;46.924;15.474;2022-10-16T07:53:12;98406.56;;;13.41;100.00
27202;BME280;14717;46.924;15.474;2022-10-16T07:55:37;98407.56;;;13.50;100.00
27202;BME280;14717;46.924;15.474;2022-10-16T07:58:03;98399.53;;;13.49;100.00
27202;BME280;14717;46.924;15.474;2022-10-16T08:00:29;98401.28;;;13.63;100.00
27202;BME280;14717;46.924;15.474;2022-10-16T08:02:56;98389.78;;;13.69;100.00
27202;BME280;14717;46.924;15.474;2022-10-16T08:05:25;98396.00;;;13.80;100.00
27202;BME280;14717;46.924;15.474;2022-10-16T08:07:52;98402.94;;;14.01;100.00
27202;BME280;14717;46.924;15.474;2022-10-16T08:10:19;98409.84;;;14.21;100.00
27202;BME280;14717;46.924;15.474;2022-10-16T08:12:45;98413.88;;;14.29;100.00
27202;BME280;14717;46.924;15.474;2022-10-16T08:15:10;98400.72;;;14.34;100.00
27202;BME280;14717;46.924;15.474;2022-10-16T08:17:36;98404.31;;;14.53;100.00
27202;BME280;14717;46.924;15.474;2022-10-16T08:20:01;98417.84;;;14.73;100.00
27202;BME280;14717;46.924;15.474;2022-10-16T08:22:27;98420.94;;;14.85;98.15
27202;BME280;14717;46.924;15.474;2022-10-16T08:24:53;98418.09;;;14.89;98.44
27202;BME280;14717;46.924;15.474;2022-10-16T08:27:18;98421.53;;;14.68;98.23
27202;BME280;14717;46.924;15.474;2022-10-16T08:29:44;98422.22;;;14.92;97.96
27202;BME280;14717;46.924;15.474;2022-10-16T08:32:09;98412.31;;;14.99;95.17
27202;BME280;14717;46.924;15.474;2022-10-16T08:34:34;98412.16;;;15.23;95.65
27202;BME280;14717;46.924;15.474;2022-10-16T08:37:00;98416.91;;;15.49;93.51
27202;BME280;14717;46.924;15.474;2022-10-16T08:39:25;98409.25;;;15.68;92.34
27202;BME280;14717;46.924;15.474;2022-10-16T08:47:31;98410.69;;;16.14;89.92
27202;BME280;14717;46.924;15.474;2022-10-16T08:50:09;98417.69;;;16.24;88.45
27202;BME280;14717;46.924;15.474;2022-10-16T08:52:39;98415.31;;;16.18;88.32
27202;BME280;14717;46.924;15.474;2022-10-16T08:55:06;98412.56;;;16.40;89.80
27202;BME280;14717;46.924;15.474;2022-10-16T08:57:32;98418.78;;;16.59;89.45
27202;BME280;14717;46.924;15.474;2022-10-16T08:59:59;98412.00;;;16.73;88.44
27202;BME280;14717;46.924;15.474;2022-10-16T09:02:42;98423.25;;;16.90;85.88
27202;BME280;14717;46.924;15.474;2022-10-16T09:07:48;98436.38;;;17.11;83.81
27202;BME280;14717;46.924;15.474;2022-10-16T09:15:47;98423.59;;;17.48;82.20
27202;BME280;14717;46.924;15.474;2022-10-16T09:18:26;98420.66;;;17.62;81.48
27202;BME280;14717;46.924;15.474;2022-10-16T09:23:34;98423.16;;;17.63;81.07
27202;BME280;14717;46.924;15.474;2022-10-16T09:26:01;98418.03;;;17.57;80.00
27202;BME280;14717;46.924;15.474;2022-10-16T09:28:27;98417.28;;;17.90;81.13
27202;BME280;14717;46.924;15.474;2022-10-16T09:30:53;98424.09;;;18.14;76.68
27202;BME280;14717;46.924;15.474;2022-10-16T09:33:22;98421.63;;;18.13;74.65
27202;BME280;14717;46.924;15.474;2022-10-16T09:35:50;98423.94;;;18.11;75.49
27202;BME280;14717;46.924;15.474;2022-10-16T09:38:28;98419.81;;;18.33;77.42
27202;BME280;14717;46.924;15.474;2022-10-16T09:40:55;98422.97;;;18.40;77.54
27202;BME280;14717;46.924;15.474;2022-10-16T09:43:34;98427.22;;;18.46;76.57
27202;BME280;14717;46.924;15.474;2022-10-16T09:46:06;98428.56;;;18.57;75.62
27202;BME280;14717;46.924;15.474;2022-10-16T09:48:48;98435.28;;;18.90;74.53
27202;BME280;14717;46.924;15.474;2022-10-16T09:51:26;98425.72;;;18.99;73.46
27202;BME280;14717;46.924;15.474;2022-10-16T09:54:13;98432.31;;;19.03;73.09
27202;BME280;14717;46.924;15.474;2022-10-16T09:56:39;98436.03;;;19.24;72.88
27202;BME280;14717;46.924;15.474;2022-10-16T09:59:17;98427.81;;;19.27;72.44
27202;BME280;14717;46.924;15.474;2022-10-16T10:01:49;98425.13;;;19.39;71.02
27202;BME280;14717;46.924;15.474;2022-10-16T10:04:16;98422.22;;;19.56;70.12
27202;BME280;14717;46.924;15.474;2022-10-16T10:06:47;98421.22;;;19.61;68.63
27202;BME280;14717;46.924;15.474;2022-10-16T10:11:56;98420.00;;;19.70;67.58
27202;BME280;14717;46.924;15.474;2022-10-16T10:14:52;98421.94;;;19.78;67.92
27202;BME280;14717;46.924;15.474;2022-10-16T10:17:19;98422.09;;;19.81;69.50
27202;BME280;14717;46.924;15.474;2022-10-16T10:20:24;98422.50;;;19.63;67.99
27202;BME280;14717;46.924;15.474;2022-10-16T10:22:50;98419.19;;;19.69;66.05
27202;BME280;14717;46.924;15.474;2022-10-16T10:31:04;98417.59;;;19.97;65.36
27202;BME280;14717;46.924;15.474;2022-10-16T10:36:40;98417.63;;;19.89;66.36
27202;BME280;14717;46.924;15.474;2022-10-16T10:44:57;98413.09;;;20.86;62.91
27202;BME280;14717;46.924;15.474;2022-10-16T10:47:55;98413.25;;;21.01;60.84
27202;BME280;14717;46.924;15.474;2022-10-16T10:50:30;98412.31;;;20.97;59.88
27202;BME280;14717;46.924;15.474;2022-10-16T10:55:45;98417.22;;;20.68;61.97
27202;BME280;14717;46.924;15.474;2022-10-16T11:01:13;98416.31;;;20.76;64.11
27202;BME280;14717;46.924;15.474;2022-10-16T11:06:40;98405.84;;;21.40;62.72
27202;BME280;14717;46.924;15.474;2022-10-16T11:09:24;98404.50;;;21.58;62.22
27202;BME280;14717;46.924;15.474;2022-10-16T11:14:33;98405.69;;;21.69;61.13
27202;BME280;14717;46.924;15.474;2022-10-16T11:17:19;98401.56;;;21.67;61.79
27202;BME280;14717;46.924;15.474;2022-10-16T11:20:05;98397.72;;;21.59;62.03
27202;BME280;14717;46.924;15.474;2022-10-16T11:25:21;98390.09;;;21.72;61.34
27202;BME280;14717;46.924;15.474;2022-10-16T11:27:58;98394.78;;;21.68;60.27
27202;BME280;14717;46.924;15.474;2022-10-16T11:30:41;98380.81;;;21.83;60.89
27202;BME280;14717;46.924;15.474;2022-10-16T11:41:00;98390.06;;;22.07;59.79
27202;BME280;14717;46.924;15.474;2022-10-16T11:43:41;98382.09;;;22.09;56.57
27202;BME280;14717;46.924;15.474;2022-10-16T11:46:12;98390.53;;;22.21;58.33
27202;BME280;14717;46.924;15.474;2022-10-16T11:48:49;98388.53;;;22.10;58.74
27202;BME280;14717;46.924;15.474;2022-10-16T11:51:36;98388.63;;;22.37;57.51
27202;BME280;14717;46.924;15.474;2022-10-16T11:56:53;98380.56;;;22.23;58.76
27202;BME280;14717;46.924;15.474;2022-10-16T11:59:34;98384.56;;;22.23;58.88
27202;BME280;14717;46.924;15.474;2022-10-16T12:07:11;98382.75;;;22.42;57.35
27202;BME280;14717;46.924;15.474;2022-10-16T12:09:40;98389.06;;;22.51;56.50
27202;BME280;14717;46.924;15.474;2022-10-16T12:12:37;98385.72;;;22.61;56.01
27202;BME280;14717;46.924;15.474;2022-10-16T12:15:27;98385.22;;;22.70;55.64
27202;BME280;14717;46.924;15.474;2022-10-16T12:17:53;98392.75;;;22.66;55.61
27202;BME280;14717;46.924;15.474;2022-10-16T12:20:24;98388.50;;;22.72;56.00
27202;BME280;14717;46.924;15.474;2022-10-16T12:22:56;98388.63;;;22.76;55.35
27202;BME280;14717;46.924;15.474;2022-10-16T12:25:37;98378.38;;;22.83;55.42
27202;BME280;14717;46.924;15.474;2022-10-16T12:28:21;98377.56;;;22.83;54.21
27202;BME280;14717;46.924;15.474;2022-10-16T12:31:13;98391.53;;;22.91;53.08
27202;BME280;14717;46.924;15.474;2022-10-16T12:33:51;98383.50;;;22.93;53.04
27202;BME280;14717;46.924;15.474;2022-10-16T12:36:30;98384.00;;;22.83;53.37
27202;BME280;14717;46.924;15.474;2022-10-16T12:38:56;98390.09;;;22.97;54.33
27202;BME280;14717;46.924;15.474;2022-10-16T12:41:32;98379.75;;;22.89;54.51
27202;BME280;14717;46.924;15.474;2022-10-16T12:43:59;98385.66;;;22.84;54.86
27202;BME280;14717;46.924;15.474;2022-10-16T12:51:39;98393.00;;;22.89;53.90
27202;BME280;14717;46.924;15.474;2022-10-16T12:54:16;98398.28;;;23.02;54.78
27202;BME280;14717;46.924;15.474;2022-10-16T13:10:32;98398.81;;;22.92;51.52
27202;BME280;14717;46.924;15.474;2022-10-16T13:19:16;98394.78;;;22.93;51.35
27202;BME280;14717;46.924;15.474;2022-10-16T13:24:25;98407.84;;;23.13;53.13
27202;BME280;14717;46.924;15.474;2022-10-16T13:27:23;98423.06;;;23.24;54.47
27202;BME280;14717;46.924;15.474;2022-10-16T13:30:00;98422.81;;;23.29;55.21
27202;BME280;14717;46.924;15.474;2022-10-16T13:32:27;98427.13;;;23.11;55.85
27202;BME280;14717;46.924;15.474;2022-10-16T13:34:52;98425.84;;;23.08;56.43
27202;BME280;14717;46.924;15.474;2022-10-16T13:37:21;98419.06;;;23.25;56.66
27202;BME280;14717;46.924;15.474;2022-10-16T13:39:47;98423.50;;;23.10;56.75
27202;BME280;14717;46.924;15.474;2022-10-16T13:42:29;98424.97;;;23.20;57.42
27202;BME280;14717;46.924;15.474;2022-10-16T13:44:55;98435.59;;;23.11;56.22
27202;BME280;14717;46.924;15.474;2022-10-16T13:47:23;98439.28;;;23.00;56.14
27202;BME280;14717;46.924;15.474;2022-10-16T13:52:24;98435.94;;;23.09;56.37
27202;BME280;14717;46.924;15.474;2022-10-16T13:54:50;98442.41;;;23.10;56.76
27202;BME280;14717;46.924;15.474;2022-10-16T13:57:16;98437.03;;;23.05;55.74
27202;BME280;14717;46.924;15.474;2022-10-16T13:59:42;98431.22;;;22.86;56.74
27202;BME280;14717;46.924;15.474;2022-10-16T14:02:30;98432.28;;;22.82;58.00
27202;BME280;14717;46.924;15.474;2022-10-16T14:04:57;98434.25;;;22.93;57.79
27202;BME280;14717;46.924;15.474;2022-10-16T14:07:29;98437.75;;;23.02;57.49
27202;BME280;14717;46.924;15.474;2022-10-16T14:10:01;98445.13;;;23.07;57.65
27202;BME280;14717;46.924;15.474;2022-10-16T14:12:27;98446.00;;;22.95;58.01
27202;BME280;14717;46.924;15.474;2022-10-16T14:14:55;98439.91;;;22.93;57.78
27202;BME280;14717;46.924;15.474;2022-10-16T14:17:33;98440.38;;;22.83;58.85
27202;BME280;14717;46.924;15.474;2022-10-16T14:20:03;98444.50;;;22.86;57.05
27202;BME280;14717;46.924;15.474;2022-10-16T14:22:35;98448.47;;;22.85;57.76
27202;BME280;14717;46.924;15.474;2022-10-16T14:25:02;98453.69;;;22.71;57.47
27202;BME280;14717;46.924;15.474;2022-10-16T14:27:35;98455.06;;;22.77;58.30
27202;BME280;14717;46.924;15.474;2022-10-16T14:30:20;98454.50;;;22.71;58.67
27202;BME280;14717;46.924;15.474;2022-10-16T14:33:04;98464.63;;;22.61;58.14
27202;BME280;14717;46.924;15.474;2022-10-16T14:35:35;98465.00;;;22.47;58.49